createdAt,value
2023-04-28T00:00:23.432Z,12.8834
2023-04-28T00:01:24.512Z,12.8903
2023-04-28T00:02:25.691Z,12.9038
2023-04-28T00:03:26.990Z,12.8933
2023-04-28T00:04:28.459Z,12.8266
2023-04-28T00:05:29.650Z,12.8164
2023-04-28T00:06:30.639Z,12.8297
2023-04-28T00:07:31.746Z,12.8705
2023-04-28T00:08:32.771Z,12.9191
2023-04-28T00:09:33.893Z,12.8942
2023-04-28T00:10:34.934Z,12.9436
2023-04-28T00:11:35.976Z,12.9758
2023-04-28T00:12:37.011Z,12.9558
2023-04-28T00:13:38.072Z,13.0310
2023-04-28T00:14:39.265Z,13.0881
2023-04-28T00:15:40.286Z,13.0845
2023-04-28T00:16:41.558Z,13.0556
2023-04-28T00:17:43.086Z,13.1044
2023-04-28T00:18:44.199Z,13.0692
2023-04-28T00:19:45.251Z,13.0851
2023-04-28T00:20:46.268Z,13.0732
2023-04-28T00:21:47.301Z,13.0861
2023-04-28T00:22:48.346Z,13.0533
2023-04-28T00:23:49.427Z,13.0203
2023-04-28T00:24:50.444Z,13.0475
2023-04-28T00:25:51.471Z,12.9761
2023-04-28T00:26:52.653Z,13.0284
2023-04-28T00:27:53.664Z,13.0208
2023-04-28T00:28:54.711Z,13.0574
2023-04-28T00:29:55.748Z,13.0018
2023-04-28T00:30:56.865Z,13.0162
2023-04-28T00:31:58.315Z,12.9822
2023-04-28T00:32:59.404Z,12.9910
2023-04-28T00:34:00.446Z,12.9859
2023-04-28T00:35:01.534Z,12.9859
2023-04-28T00:36:02.680Z,12.9682
2023-04-28T00:37:03.801Z,12.9903
2023-04-28T00:38:04.865Z,12.9804
2023-04-28T00:39:05.927Z,13.0106
2023-04-28T00:40:06.949Z,13.0252
2023-04-28T00:41:08.042Z,13.0059
2023-04-28T00:42:09.177Z,12.9841
2023-04-28T00:43:10.186Z,12.9300
2023-04-28T00:44:11.292Z,12.9365
2023-04-28T00:45:12.327Z,12.9006
2023-04-28T00:46:13.549Z,12.9210
2023-04-28T00:47:14.823Z,12.8918
2023-04-28T00:48:15.971Z,12.8783
2023-04-28T00:49:16.951Z,12.8374
2023-04-28T00:50:17.982Z,12.8172
2023-04-28T00:51:19.031Z,12.8194
2023-04-28T00:52:20.288Z,12.9280
2023-04-28T00:53:21.317Z,12.9030
2023-04-28T00:54:22.349Z,12.9182
2023-04-28T00:55:23.358Z,12.9027
2023-04-28T00:56:24.433Z,12.9096
2023-04-28T00:57:25.471Z,12.9459
2023-04-28T00:58:26.572Z,12.9359
2023-04-28T00:59:27.597Z,12.9828
2023-04-28T01:00:28.625Z,12.9671
2023-04-28T01:01:29.736Z,12.9885
2023-04-28T01:02:30.844Z,12.9534
2023-04-28T01:03:32.126Z,12.9549
2023-04-28T01:04:33.347Z,12.9103
2023-04-28T01:05:34.459Z,12.9197
2023-04-28T01:06:35.559Z,12.9618
2023-04-28T01:07:36.631Z,12.9401
2023-04-28T01:08:37.635Z,12.9558
2023-04-28T01:09:38.692Z,12.9379
2023-04-28T01:10:39.765Z,12.9364
2023-04-28T01:11:40.847Z,12.9442
2023-04-28T01:12:41.925Z,12.9495
2023-04-28T01:13:43.066Z,12.9919
2023-04-28T01:14:44.061Z,12.9605
2023-04-28T01:15:45.095Z,12.9459
2023-04-28T01:16:46.148Z,12.9344
2023-04-28T01:17:47.188Z,12.9745
2023-04-28T01:18:48.242Z,12.9605
2023-04-28T01:19:49.286Z,12.9342
2023-04-28T01:20:50.315Z,13.0035
2023-04-28T01:21:51.428Z,12.9617
2023-04-28T01:22:52.463Z,12.9810
2023-04-28T01:23:53.511Z,13.0198
2023-04-28T01:24:54.605Z,13.0010
2023-04-28T01:25:55.702Z,12.8856
2023-04-28T01:26:56.855Z,12.7522
2023-04-28T01:27:57.922Z,12.6776
2023-04-28T01:28:59.079Z,12.5610
2023-04-28T01:30:00.228Z,12.5978
2023-04-28T01:31:01.370Z,12.4559
2023-04-28T01:32:02.606Z,12.3595
2023-04-28T01:33:03.873Z,12.4424
2023-04-28T01:34:05.040Z,12.5189
2023-04-28T01:35:06.160Z,12.4969
2023-04-28T01:36:07.285Z,12.5294
2023-04-28T01:37:08.441Z,12.5027
2023-04-28T01:38:09.561Z,12.4113
2023-04-28T01:39:10.743Z,12.4037
2023-04-28T01:40:11.862Z,12.4237
2023-04-28T01:41:13.037Z,12.3942
2023-04-28T01:42:14.156Z,12.4993
2023-04-28T01:43:15.455Z,12.5479
2023-04-28T01:44:16.775Z,12.5764
2023-04-28T01:45:18.368Z,12.5821
2023-04-28T01:46:19.685Z,12.5869
2023-04-28T01:47:20.826Z,12.4837
2023-04-28T01:48:21.972Z,12.4372
2023-04-28T01:49:23.083Z,12.4456
2023-04-28T01:50:24.259Z,12.2862
2023-04-28T01:51:25.416Z,12.2060
2023-04-28T01:52:26.631Z,12.2033
2023-04-28T01:53:27.765Z,12.2318
2023-04-28T01:54:28.958Z,12.2027
2023-04-28T01:55:30.095Z,12.1925
2023-04-28T01:56:31.598Z,12.1231
2023-04-28T01:57:32.815Z,12.1683
2023-04-28T01:58:33.914Z,12.2021
2023-04-28T01:59:35.105Z,12.2813
2023-04-28T02:00:36.361Z,12.1790
2023-04-28T02:01:37.868Z,12.2703
2023-04-28T02:02:39.084Z,12.1223
2023-04-28T02:03:40.478Z,12.1997
2023-04-28T02:04:41.810Z,12.1604
2023-04-28T02:05:42.912Z,12.2210
2023-04-28T02:06:44.034Z,12.2634
2023-04-28T02:07:45.247Z,12.2316
2023-04-28T02:08:46.407Z,12.1853
2023-04-28T02:09:47.538Z,12.1216
2023-04-28T02:10:48.676Z,12.1226
2023-04-28T02:11:49.844Z,12.1237
2023-04-28T02:12:51.045Z,12.1081
2023-04-28T02:13:52.143Z,12.0725
2023-04-28T02:14:53.302Z,12.1104
2023-04-28T02:15:54.493Z,12.0805
2023-04-28T02:16:55.726Z,12.0403
2023-04-28T02:17:56.930Z,12.0885
2023-04-28T02:18:58.105Z,12.1637
2023-04-28T02:19:59.304Z,12.2520
2023-04-28T02:21:00.477Z,12.3281
2023-04-28T02:22:01.682Z,12.3651
2023-04-28T02:23:02.863Z,12.3661
2023-04-28T02:24:04.057Z,12.4157
2023-04-28T02:25:05.167Z,12.4941
2023-04-28T02:26:06.272Z,12.5569
2023-04-28T02:27:07.392Z,12.5913
2023-04-28T02:28:08.631Z,12.5684
2023-04-28T02:29:09.811Z,12.4915
2023-04-28T02:30:10.927Z,12.3764
2023-04-28T02:31:12.086Z,12.2811
2023-04-28T02:32:13.275Z,12.2522
2023-04-28T02:33:14.433Z,12.2181
2023-04-28T02:34:15.829Z,12.1961
2023-04-28T02:35:17.429Z,12.2250
2023-04-28T02:36:18.635Z,12.2593
2023-04-28T02:37:19.777Z,12.2622
2023-04-28T02:38:20.959Z,12.3027
2023-04-28T02:39:22.090Z,12.3023
2023-04-28T02:40:23.185Z,12.3066
2023-04-28T02:41:24.336Z,12.3430
2023-04-28T02:42:25.541Z,12.3373
2023-04-28T02:43:26.705Z,12.4053
2023-04-28T02:44:27.838Z,12.4184
2023-04-28T02:45:28.987Z,12.3854
2023-04-28T02:46:30.194Z,12.4204
2023-04-28T02:47:31.457Z,12.4429
2023-04-28T02:48:32.706Z,12.3528
2023-04-28T02:49:33.853Z,12.3536
2023-04-28T02:50:35.029Z,12.3040
2023-04-28T02:51:36.169Z,12.2889
2023-04-28T02:52:37.325Z,12.2885
2023-04-28T02:53:38.441Z,12.2952
2023-04-28T02:54:39.540Z,12.2537
2023-04-28T02:55:40.660Z,12.1449
2023-04-28T02:56:41.767Z,12.1050
2023-04-28T02:57:42.939Z,12.0630
2023-04-28T02:58:44.120Z,11.9463
2023-04-28T02:59:45.312Z,11.9261
2023-04-28T03:00:46.511Z,11.8137
2023-04-28T03:01:47.903Z,11.7468
2023-04-28T03:02:49.368Z,11.7251
2023-04-28T03:03:50.740Z,11.8061
2023-04-28T03:04:52.022Z,11.7938
2023-04-28T03:05:53.159Z,11.7692
2023-04-28T03:06:54.285Z,11.7499
2023-04-28T03:07:55.507Z,11.8432
2023-04-28T03:08:56.649Z,11.8433
2023-04-28T03:09:57.797Z,11.9754
2023-04-28T03:10:58.944Z,11.9229
2023-04-28T03:12:00.130Z,11.9381
2023-04-28T03:13:01.416Z,11.8162
2023-04-28T03:14:02.593Z,11.7758
2023-04-28T03:15:03.752Z,11.7018
2023-04-28T03:16:04.994Z,11.5965
2023-04-28T03:17:06.168Z,11.4612
2023-04-28T03:18:07.404Z,11.4787
2023-04-28T03:19:08.887Z,11.3679
2023-04-28T03:20:10.045Z,11.3427
2023-04-28T03:21:11.264Z,11.2585
2023-04-28T03:22:12.460Z,11.2544
2023-04-28T03:23:13.698Z,11.2013
2023-04-28T03:24:15.068Z,11.0909
2023-04-28T03:25:16.740Z,11.0787
2023-04-28T03:26:17.879Z,11.0679
2023-04-28T03:27:19.082Z,11.0693
2023-04-28T03:28:20.235Z,11.0943
2023-04-28T03:29:21.432Z,11.1193
2023-04-28T03:30:22.701Z,11.1370
2023-04-28T03:31:23.889Z,11.1047
2023-04-28T03:32:25.053Z,11.1757
2023-04-28T03:33:26.197Z,11.1139
2023-04-28T03:34:27.371Z,11.1723
2023-04-28T03:35:28.527Z,11.1853
2023-04-28T03:36:29.699Z,11.2388
2023-04-28T03:37:30.968Z,11.2351
2023-04-28T03:38:32.141Z,11.2275
2023-04-28T03:39:33.317Z,11.2097
2023-04-28T03:40:34.450Z,11.2388
2023-04-28T03:41:35.666Z,11.1847
2023-04-28T03:42:36.801Z,11.1585
2023-04-28T03:43:37.989Z,11.2527
2023-04-28T03:44:39.168Z,11.1802
2023-04-28T03:45:40.326Z,11.2489
2023-04-28T03:46:41.506Z,11.2184
2023-04-28T03:47:42.784Z,11.1906
2023-04-28T03:48:43.968Z,11.1742
2023-04-28T03:49:45.192Z,11.1071
2023-04-28T03:50:46.406Z,11.0160
2023-04-28T03:51:47.616Z,10.9922
2023-04-28T03:52:48.827Z,10.9292
2023-04-28T03:53:49.974Z,10.9092
2023-04-28T03:54:51.152Z,10.8900
2023-04-28T03:55:52.279Z,10.9064
2023-04-28T03:56:53.560Z,10.9083
2023-04-28T03:57:54.816Z,11.0018
2023-04-28T03:58:55.919Z,10.9736
2023-04-28T03:59:57.037Z,10.9041
2023-04-28T04:00:58.175Z,10.9831
2023-04-28T04:01:59.307Z,11.0435
2023-04-28T04:03:00.632Z,11.0008
2023-04-28T04:04:02.210Z,10.9622
2023-04-28T04:05:04.022Z,10.9280
2023-04-28T04:06:05.545Z,10.8507
2023-04-28T04:07:06.713Z,10.8374
2023-04-28T04:08:07.902Z,10.8734
2023-04-28T04:09:09.057Z,10.8431
2023-04-28T04:10:10.478Z,10.8340
2023-04-28T04:11:11.695Z,10.8365
2023-04-28T04:12:12.869Z,10.7807
2023-04-28T04:13:14.128Z,10.8170
2023-04-28T04:14:15.537Z,10.7886
2023-04-28T04:15:16.912Z,10.7750
2023-04-28T04:16:18.085Z,10.7682
2023-04-28T04:17:19.345Z,10.8165
2023-04-28T04:18:20.522Z,10.8172
2023-04-28T04:19:21.733Z,10.9066
2023-04-28T04:20:22.878Z,10.8567
2023-04-28T04:21:24.032Z,10.8520
2023-04-28T04:22:25.176Z,10.8669
2023-04-28T04:23:26.461Z,10.8783
2023-04-28T04:24:27.604Z,10.8320
2023-04-28T04:25:28.834Z,10.7857
2023-04-28T04:26:30.045Z,10.7883
2023-04-28T04:27:31.274Z,10.7822
2023-04-28T04:28:32.442Z,10.8293
2023-04-28T04:29:33.613Z,10.8299
2023-04-28T04:30:34.781Z,10.8023
2023-04-28T04:31:35.908Z,10.7765
2023-04-28T04:32:37.072Z,10.8034
2023-04-28T04:33:38.346Z,10.7667
2023-04-28T04:34:39.506Z,10.8843
2023-04-28T04:35:40.659Z,10.8916
2023-04-28T04:36:41.883Z,10.8555
2023-04-28T04:37:43.088Z,10.8417
2023-04-28T04:38:44.335Z,10.7684
2023-04-28T04:39:45.492Z,10.7457
2023-04-28T04:40:46.639Z,10.7678
2023-04-28T04:41:47.799Z,10.7952
2023-04-28T04:42:49.051Z,10.7730
2023-04-28T04:43:50.194Z,10.7529
2023-04-28T04:44:51.361Z,10.8142
2023-04-28T04:45:52.489Z,10.8260
2023-04-28T04:46:53.950Z,10.7404
2023-04-28T04:47:55.328Z,10.7884
2023-04-28T04:48:56.535Z,10.8135
2023-04-28T04:49:57.745Z,10.8604
2023-04-28T04:50:59.020Z,10.7543
2023-04-28T04:52:00.956Z,10.7843
2023-04-28T04:53:02.196Z,10.7787
2023-04-28T04:54:03.375Z,10.7888
2023-04-28T04:55:04.572Z,10.7977
2023-04-28T04:56:05.840Z,10.8022
2023-04-28T04:57:07.040Z,10.8553
2023-04-28T04:58:08.212Z,10.8372
2023-04-28T04:59:09.394Z,10.8361
2023-04-28T05:00:10.541Z,10.8085
2023-04-28T05:01:11.702Z,10.7646
2023-04-28T05:02:12.984Z,10.7629
2023-04-28T05:03:14.248Z,10.7187
2023-04-28T05:04:15.820Z,10.7015
2023-04-28T05:05:21.464Z,10.7534
2023-04-28T05:06:17.970Z,10.7963
2023-04-28T05:07:19.217Z,10.7896
2023-04-28T05:08:20.366Z,10.7932
2023-04-28T05:09:21.554Z,10.7657
2023-04-28T05:10:22.963Z,10.7451
2023-04-28T05:11:24.081Z,10.7652
2023-04-28T05:12:25.280Z,10.7807
2023-04-28T05:13:26.495Z,10.7441
2023-04-28T05:14:27.657Z,10.7772
2023-04-28T05:15:28.795Z,10.7976
2023-04-28T05:16:29.970Z,10.8141
2023-04-28T05:17:31.133Z,10.8209
2023-04-28T05:18:32.344Z,10.8104
2023-04-28T05:19:33.546Z,10.8776
2023-04-28T05:20:34.639Z,10.8793
2023-04-28T05:21:35.776Z,10.8328
2023-04-28T05:22:36.958Z,10.8181
2023-04-28T05:23:38.146Z,10.7514
2023-04-28T05:24:39.302Z,10.7408
2023-04-28T05:25:40.534Z,10.7099
2023-04-28T05:26:41.759Z,10.7042
2023-04-28T05:27:42.909Z,10.7616
2023-04-28T05:28:44.084Z,10.7307
2023-04-28T05:29:45.306Z,10.7648
2023-04-28T05:30:46.459Z,10.7271
2023-04-28T05:31:47.678Z,10.7394
2023-04-28T05:32:48.811Z,10.8081
2023-04-28T05:33:49.964Z,10.7633
2023-04-28T05:34:51.200Z,10.7562
2023-04-28T05:35:52.378Z,10.7605
2023-04-28T05:36:53.622Z,10.7640
2023-04-28T05:37:54.785Z,10.7676
2023-04-28T05:38:55.929Z,10.8704
2023-04-28T05:39:57.088Z,10.8748
2023-04-28T05:40:58.313Z,10.9658
2023-04-28T05:41:59.444Z,10.9853
2023-04-28T05:43:00.636Z,10.9195
2023-04-28T05:44:01.813Z,10.9826
2023-04-28T05:45:02.980Z,10.8999
2023-04-28T05:46:06.245Z,10.8760
2023-04-28T05:47:05.764Z,10.9068
2023-04-28T05:48:06.982Z,10.8371
2023-04-28T05:49:08.222Z,10.8223
2023-04-28T05:50:09.364Z,10.8407
2023-04-28T05:51:10.535Z,10.8214
2023-04-28T05:52:11.677Z,10.8653
2023-04-28T05:53:12.889Z,10.8672
2023-04-28T05:54:14.147Z,10.9163
2023-04-28T05:55:15.402Z,11.0081
2023-04-28T05:56:16.557Z,11.0281
2023-04-28T05:57:17.728Z,10.9961
2023-04-28T05:58:18.916Z,10.9899
2023-04-28T05:59:20.125Z,10.9228
2023-04-28T06:00:21.352Z,10.8985
2023-04-28T06:01:22.489Z,10.8355
2023-04-28T06:02:24.224Z,10.8477
2023-04-28T06:03:24.219Z,10.8759
2023-04-28T06:04:26.627Z,10.9189
2023-04-28T06:05:28.268Z,10.9628
2023-04-28T06:06:29.630Z,10.8491
2023-04-28T06:07:30.927Z,10.8055
2023-04-28T06:08:32.124Z,10.8294
2023-04-28T06:09:33.286Z,10.7750
2023-04-28T06:10:34.420Z,10.8299
2023-04-28T06:11:35.544Z,10.9154
2023-04-28T06:12:36.701Z,10.9066
2023-04-28T06:13:37.845Z,10.8950
2023-04-28T06:14:39.048Z,10.9474
2023-04-28T06:15:40.263Z,10.9944
2023-04-28T06:16:41.380Z,10.9973
2023-04-28T06:17:42.523Z,10.9780
2023-04-28T06:18:43.733Z,11.0168
2023-04-28T06:19:44.929Z,11.0656
2023-04-28T06:20:46.088Z,11.1333
2023-04-28T06:21:47.305Z,11.1982
2023-04-28T06:22:48.581Z,11.1039
2023-04-28T06:23:49.770Z,11.0803
2023-04-28T06:24:50.983Z,11.1062
2023-04-28T06:25:52.176Z,11.1001
2023-04-28T06:26:53.378Z,11.1122
2023-04-28T06:27:54.593Z,11.1185
2023-04-28T06:28:55.835Z,11.1681
2023-04-28T06:29:57.070Z,11.1701
2023-04-28T06:30:58.315Z,11.1223
2023-04-28T06:31:59.536Z,11.1434
2023-04-28T06:33:00.767Z,11.1270
2023-04-28T06:34:02.040Z,11.1194
2023-04-28T06:35:03.248Z,11.1057
2023-04-28T06:36:04.503Z,11.0509
2023-04-28T06:37:05.687Z,11.0267
2023-04-28T06:38:06.884Z,11.0089
2023-04-28T06:39:08.049Z,10.9975
2023-04-28T06:40:09.247Z,10.9174
2023-04-28T06:41:10.526Z,10.8946
2023-04-28T06:42:11.731Z,10.9180
2023-04-28T06:43:12.938Z,10.9043
2023-04-28T06:44:14.218Z,10.9050
2023-04-28T06:45:15.464Z,10.9219
2023-04-28T06:46:16.728Z,10.9615
2023-04-28T06:47:17.940Z,10.9922
2023-04-28T06:48:19.144Z,11.0111
2023-04-28T06:49:20.281Z,10.9686
2023-04-28T06:50:21.780Z,10.9277
2023-04-28T06:51:23.187Z,10.9604
2023-04-28T06:52:32.879Z,10.9656
2023-04-28T06:53:26.754Z,10.9410
2023-04-28T06:54:27.991Z,10.8987
2023-04-28T06:55:29.168Z,10.8984
2023-04-28T06:56:30.359Z,10.8610
2023-04-28T06:57:31.587Z,10.8923
2023-04-28T06:58:32.817Z,10.9451
2023-04-28T06:59:34.037Z,10.8761
2023-04-28T07:00:35.269Z,10.9493
2023-04-28T07:01:36.429Z,11.0338
2023-04-28T07:02:37.832Z,11.0667
2023-04-28T07:03:39.672Z,11.0123
2023-04-28T07:04:40.932Z,10.9916
2023-04-28T07:05:42.145Z,10.9952
2023-04-28T07:06:43.373Z,11.0258
2023-04-28T07:07:44.581Z,11.0503
2023-04-28T07:08:45.822Z,11.0555
2023-04-28T07:09:47.049Z,11.0617
2023-04-28T07:10:48.238Z,11.0450
2023-04-28T07:11:49.399Z,11.0530
2023-04-28T07:12:50.593Z,11.0288
2023-04-28T07:13:51.797Z,11.0484
2023-04-28T07:14:53.028Z,11.0284
2023-04-28T07:15:54.200Z,11.0477
2023-04-28T07:16:55.569Z,11.0048
2023-04-28T07:17:56.728Z,11.0208
2023-04-28T07:18:57.936Z,10.9796
2023-04-28T07:19:59.138Z,10.9635
2023-04-28T07:21:00.320Z,11.0422
2023-04-28T07:22:01.529Z,11.1252
2023-04-28T07:23:02.737Z,11.0682
2023-04-28T07:24:04.008Z,11.0461
2023-04-28T07:25:05.188Z,11.0372
2023-04-28T07:26:06.607Z,11.0804
2023-04-28T07:27:07.770Z,11.1446
2023-04-28T07:28:08.920Z,11.1196
2023-04-28T07:29:10.152Z,11.1524
2023-04-28T07:30:25.674Z,11.1026
2023-04-28T07:31:13.002Z,11.1093
2023-04-28T07:32:14.303Z,11.0961
2023-04-28T07:33:15.603Z,11.1279
2023-04-28T07:34:17.004Z,11.0637
2023-04-28T07:35:18.457Z,11.0440
2023-04-28T07:36:19.657Z,11.0049
2023-04-28T07:37:20.856Z,10.9922
2023-04-28T07:38:22.083Z,10.9644
2023-04-28T07:39:23.298Z,10.9748
2023-04-28T07:40:24.507Z,10.8946
2023-04-28T07:41:25.693Z,10.8717
2023-04-28T07:42:26.921Z,10.9376
2023-04-28T07:43:28.097Z,10.9096
2023-04-28T07:44:29.257Z,10.9407
2023-04-28T07:45:30.430Z,10.8931
2023-04-28T07:46:31.763Z,10.9090
2023-04-28T07:47:33.047Z,10.8749
2023-04-28T07:48:34.265Z,10.8266
2023-04-28T07:49:35.508Z,10.8613
2023-04-28T07:50:36.742Z,10.7851
2023-04-28T07:51:37.979Z,10.8009
2023-04-28T07:52:39.198Z,10.7682
2023-04-28T07:53:40.428Z,10.7749
2023-04-28T07:54:41.629Z,10.7721
2023-04-28T07:55:42.884Z,10.7417
2023-04-28T07:56:44.088Z,10.7062
2023-04-28T07:57:45.342Z,10.7641
2023-04-28T07:58:46.546Z,10.7194
2023-04-28T07:59:47.740Z,10.7142
2023-04-28T08:00:49.014Z,10.7156
2023-04-28T08:01:50.239Z,10.7327
2023-04-28T08:02:51.724Z,10.7090
2023-04-28T08:03:54.231Z,10.6847
2023-04-28T08:04:55.861Z,10.6754
2023-04-28T08:05:57.307Z,10.7006
2023-04-28T08:06:59.099Z,10.6901
2023-04-28T08:08:00.551Z,10.6577
2023-04-28T08:09:01.618Z,10.6697
2023-04-28T08:10:02.650Z,10.6622
2023-04-28T08:11:03.525Z,10.7005
2023-04-28T08:12:04.351Z,10.6875
2023-04-28T08:13:05.424Z,10.6233
2023-04-28T08:14:06.280Z,10.6168
2023-04-28T08:15:07.164Z,10.6172
2023-04-28T08:16:08.067Z,10.6083
2023-04-28T08:17:08.926Z,10.6408
2023-04-28T08:18:09.816Z,10.6168
2023-04-28T08:19:10.655Z,10.6247
2023-04-28T08:20:11.520Z,10.6480
2023-04-28T08:21:12.372Z,10.6299
2023-04-28T08:22:13.203Z,10.6097
2023-04-28T08:23:14.076Z,10.6238
2023-04-28T08:24:15.085Z,10.6545
2023-04-28T08:25:16.156Z,10.6929
2023-04-28T08:26:17.022Z,10.6895
2023-04-28T08:27:17.924Z,10.7029
2023-04-28T08:28:18.787Z,10.7296
2023-04-28T08:29:19.637Z,10.7670
2023-04-28T08:30:20.615Z,10.7830
2023-04-28T08:31:21.458Z,10.7857
2023-04-28T08:32:22.298Z,10.7755
2023-04-28T08:33:23.163Z,10.7924
2023-04-28T08:34:24.022Z,10.8366
2023-04-28T08:35:24.912Z,10.8504
2023-04-28T08:36:25.789Z,10.8818
2023-04-28T08:37:26.638Z,10.8599
2023-04-28T08:38:27.439Z,10.9151
2023-04-28T08:39:28.312Z,10.8995
2023-04-28T08:40:29.256Z,10.9019
2023-04-28T08:41:30.102Z,10.9400
2023-04-28T08:42:31.045Z,10.9934
2023-04-28T08:43:31.987Z,11.0277
2023-04-28T08:44:32.891Z,11.0745
2023-04-28T08:45:33.741Z,11.1583
2023-04-28T08:46:34.577Z,11.1346
2023-04-28T08:47:35.450Z,11.1528
2023-04-28T08:48:36.302Z,11.1414
2023-04-28T08:49:37.163Z,11.2006
2023-04-28T08:50:38.030Z,11.2120
2023-04-28T08:51:40.822Z,11.2540
2023-04-28T08:52:40.177Z,11.2664
2023-04-28T08:54:06.181Z,11.3100
2023-04-28T08:54:42.388Z,11.2976
2023-04-28T08:55:43.304Z,11.2599
2023-04-28T08:56:44.100Z,11.2667
2023-04-28T08:57:44.952Z,11.3547
2023-04-28T08:58:45.879Z,11.3784
2023-04-28T08:59:46.704Z,11.3129
2023-04-28T09:00:47.542Z,11.3291
2023-04-28T09:01:48.398Z,11.3232
2023-04-28T09:02:49.395Z,11.3687
2023-04-28T09:03:50.596Z,11.3797
2023-04-28T09:04:51.715Z,11.3274
2023-04-28T09:05:52.801Z,11.2626
2023-04-28T09:06:53.677Z,11.2623
2023-04-28T09:07:54.463Z,11.2697
2023-04-28T09:08:55.318Z,11.2103
2023-04-28T09:09:56.192Z,11.2342
2023-04-28T09:10:57.071Z,11.2115
2023-04-28T09:11:57.911Z,11.1980
2023-04-28T09:12:58.778Z,11.2708
2023-04-28T09:13:59.583Z,11.2229
2023-04-28T09:15:00.522Z,11.2706
2023-04-28T09:16:01.437Z,11.2097
2023-04-28T09:17:02.282Z,11.1062
2023-04-28T09:18:03.307Z,11.1326
2023-04-28T09:19:04.286Z,11.1327
2023-04-28T09:20:05.175Z,11.1395
2023-04-28T09:21:05.965Z,11.0954
2023-04-28T09:22:18.175Z,11.0769
2023-04-28T09:23:08.033Z,11.0637
2023-04-28T09:24:08.917Z,11.0691
2023-04-28T09:25:09.745Z,11.0935
2023-04-28T09:26:10.573Z,11.1642
2023-04-28T09:27:11.421Z,11.1820
2023-04-28T09:28:12.306Z,11.2234
2023-04-28T09:29:13.186Z,11.2427
2023-04-28T09:30:14.013Z,11.2824
2023-04-28T09:31:14.873Z,11.2797
2023-04-28T09:32:15.831Z,11.3499
2023-04-28T09:33:16.800Z,11.2732
2023-04-28T09:34:17.951Z,11.2817
2023-04-28T09:35:19.048Z,11.3021
2023-04-28T09:36:19.883Z,11.3218
2023-04-28T09:37:20.813Z,11.2518
2023-04-28T09:38:21.645Z,11.2483
2023-04-28T09:39:22.584Z,11.2775
2023-04-28T09:40:23.563Z,11.2080
2023-04-28T09:41:24.417Z,11.1994
2023-04-28T09:42:25.277Z,11.1831
2023-04-28T09:43:26.162Z,11.1287
2023-04-28T09:44:26.941Z,11.1366
2023-04-28T09:45:29.873Z,11.0988
2023-04-28T09:46:28.721Z,11.0911
2023-04-28T09:47:29.573Z,11.0997
2023-04-28T09:48:30.446Z,11.1154
2023-04-28T09:49:31.330Z,11.0782
2023-04-28T09:50:32.160Z,11.0884
2023-04-28T09:51:33.053Z,11.1142
2023-04-28T09:52:33.850Z,11.1559
2023-04-28T09:53:34.694Z,11.1394
2023-04-28T09:54:35.496Z,11.1005
2023-04-28T09:55:36.357Z,11.1057
2023-04-28T09:56:37.223Z,11.1286
2023-04-28T09:57:38.048Z,11.1242
2023-04-28T09:58:38.944Z,11.1204
2023-04-28T09:59:39.814Z,11.1045
2023-04-28T10:00:40.670Z,11.1407
2023-04-28T10:01:42.662Z,11.1796
2023-04-28T10:02:44.194Z,11.2324
2023-04-28T10:03:45.388Z,11.2468
2023-04-28T10:04:46.390Z,11.2877
2023-04-28T10:05:47.674Z,11.2414
2023-04-28T10:06:48.507Z,11.2142
2023-04-28T10:07:49.340Z,11.2286
2023-04-28T10:08:50.190Z,11.2414
2023-04-28T10:09:51.055Z,11.2078
2023-04-28T10:10:51.837Z,11.2050
2023-04-28T10:11:52.684Z,11.1859
2023-04-28T10:12:53.523Z,11.2444
2023-04-28T10:13:54.404Z,11.2309
2023-04-28T10:14:55.289Z,11.2052
2023-04-28T10:15:56.219Z,11.2001
2023-04-28T10:16:57.052Z,11.2922
2023-04-28T10:17:57.968Z,11.3019
2023-04-28T10:18:58.775Z,11.2758
2023-04-28T10:19:59.649Z,11.3067
2023-04-28T10:21:00.480Z,11.3626
2023-04-28T10:22:01.333Z,11.4363
2023-04-28T10:23:02.171Z,11.4416
2023-04-28T10:24:02.999Z,11.5097
2023-04-28T10:25:03.880Z,11.5731
2023-04-28T10:26:04.724Z,11.6622
2023-04-28T10:27:05.576Z,11.7283
2023-04-28T10:28:06.442Z,11.6520
2023-04-28T10:29:07.263Z,11.6755
2023-04-28T10:30:15.854Z,11.7035
2023-04-28T10:31:09.370Z,11.7263
2023-04-28T10:32:10.168Z,11.6895
2023-04-28T10:33:11.023Z,11.6850
2023-04-28T10:34:11.853Z,11.7379
2023-04-28T10:35:12.676Z,11.7697
2023-04-28T10:36:13.644Z,11.8489
2023-04-28T10:37:15.164Z,11.8662
2023-04-28T10:38:15.971Z,11.8695
2023-04-28T10:39:16.810Z,11.7985
2023-04-28T10:40:17.681Z,11.7654
2023-04-28T10:41:18.536Z,11.7695
2023-04-28T10:42:19.407Z,11.7708
2023-04-28T10:43:20.351Z,11.7328
2023-04-28T10:44:21.194Z,11.7316
2023-04-28T10:45:22.011Z,11.8196
2023-04-28T10:46:22.905Z,11.8545
2023-04-28T10:47:23.735Z,11.8943
2023-04-28T10:48:24.546Z,11.9097
2023-04-28T10:49:25.343Z,11.9874
2023-04-28T10:50:38.443Z,11.9480
2023-04-28T10:51:27.473Z,12.0349
2023-04-28T10:52:28.326Z,11.9608
2023-04-28T10:53:29.408Z,12.0345
2023-04-28T10:54:30.359Z,12.0840
2023-04-28T10:55:31.164Z,12.1253
2023-04-28T10:56:31.961Z,12.1238
2023-04-28T10:57:32.763Z,12.1439
2023-04-28T10:58:33.555Z,12.1286
2023-04-28T10:59:34.346Z,12.1759
2023-04-28T11:00:35.150Z,12.1645
2023-04-28T11:01:36.064Z,12.2438
2023-04-28T11:02:37.078Z,12.3977
2023-04-28T11:03:38.414Z,12.4286
2023-04-28T11:04:39.508Z,12.4513
2023-04-28T11:05:40.456Z,12.5945
2023-04-28T11:06:41.345Z,12.6048
2023-04-28T11:07:42.137Z,12.5543
2023-04-28T11:08:42.940Z,12.6770
2023-04-28T11:09:43.833Z,12.7690
2023-04-28T11:10:44.688Z,12.7207
2023-04-28T11:11:45.582Z,12.8033
2023-04-28T11:12:46.455Z,12.7771
2023-04-28T11:13:47.372Z,12.7497
2023-04-28T11:14:48.293Z,12.7364
2023-04-28T11:15:49.297Z,12.6433
2023-04-28T11:16:50.291Z,12.5876
2023-04-28T11:17:51.219Z,12.6512
2023-04-28T11:18:54.925Z,12.6767
2023-04-28T11:19:53.880Z,12.7396
2023-04-28T11:20:54.770Z,12.9136
2023-04-28T11:21:55.667Z,13.0457
2023-04-28T11:22:56.546Z,13.0601
2023-04-28T11:23:57.445Z,12.9946
2023-04-28T11:24:58.412Z,13.1122
2023-04-28T11:25:59.344Z,13.2015
2023-04-28T11:27:00.136Z,13.2918
2023-04-28T11:28:01.006Z,13.2506
2023-04-28T11:29:01.863Z,13.2306
2023-04-28T11:30:02.687Z,13.3091
2023-04-28T11:31:03.503Z,13.1401
2023-04-28T11:32:04.442Z,13.1414
2023-04-28T11:33:05.704Z,13.1834
2023-04-28T11:34:06.796Z,13.0889
2023-04-28T11:35:07.825Z,13.0119
2023-04-28T11:36:08.693Z,13.0031
2023-04-28T11:37:09.545Z,12.9657
2023-04-28T11:38:10.380Z,12.9662
2023-04-28T11:39:11.261Z,13.0356
2023-04-28T11:40:12.117Z,13.0401
2023-04-28T11:41:13.061Z,13.0228
2023-04-28T11:42:13.970Z,13.0095
2023-04-28T11:43:14.859Z,13.0922
2023-04-28T11:44:15.810Z,13.1771
2023-04-28T11:45:16.652Z,13.3819
2023-04-28T11:46:17.599Z,13.4636
2023-04-28T11:47:18.499Z,13.6177
2023-04-28T11:48:19.366Z,13.7068
2023-04-28T11:49:20.199Z,13.6246
2023-04-28T11:50:21.019Z,13.6033
2023-04-28T11:51:21.889Z,13.6284
2023-04-28T11:52:22.715Z,13.7424
2023-04-28T11:53:23.854Z,13.8221
2023-04-28T11:54:24.708Z,13.8078
2023-04-28T11:55:25.555Z,14.0088
2023-04-28T11:56:26.409Z,13.9090
2023-04-28T11:57:27.270Z,14.0226
2023-04-28T11:58:28.081Z,14.0639
2023-04-28T11:59:28.887Z,14.1172
2023-04-28T12:00:29.697Z,14.0728
2023-04-28T12:01:30.520Z,14.1128
2023-04-28T12:02:31.578Z,14.0740
2023-04-28T12:03:32.694Z,14.0333
2023-04-28T12:04:33.910Z,13.9526
2023-04-28T12:05:35.328Z,13.8645
2023-04-28T12:06:35.033Z,13.7524
2023-04-28T12:07:35.891Z,13.7812
2023-04-28T12:08:36.734Z,13.8301
2023-04-28T12:09:37.582Z,13.8999
2023-04-28T12:10:38.359Z,13.9348
2023-04-28T12:11:39.143Z,13.9149
2023-04-28T12:12:50.020Z,13.8797
2023-04-28T12:13:41.264Z,13.8694
2023-04-28T12:14:42.211Z,13.9294
2023-04-28T12:15:43.401Z,13.8914
2023-04-28T12:16:44.309Z,13.8733
2023-04-28T12:17:45.218Z,13.8406
2023-04-28T12:18:46.069Z,13.8539